Time;durP1;ratioP1;P1;durP2;ratioP2;P2;SDS_P1;SDS_P2;PMS_P1;PMS_P2;Temp;Humidity;BMP_temperature;BMP_pressure;BME280_temperature;BME280_humidity;BME280_pressure;Samples;Min_cycle;Max_cycle;Signal;HPM_P1;HPM_P2
2023/10/20 00:01:51;;;;;;;0.50;0.50;;;;;;;;;;7400912;19;20395;-87
2023/10/20 00:04:17;;;;;;;1.00;0.90;;;;;;;;;;7398764;19;20349;-88
2023/10/20 00:06:44;;;;;;;0.60;0.60;;;;;;;;;;7395682;19;20355;-88
2023/10/20 00:09:14;;;;;;;1.40;1.05;;;;;;;;;;7391720;19;20343;-88
2023/10/20 00:11:45;;;;;;;0.65;0.65;;;;;;;;;;7395136;19;20880;-89
2023/10/20 00:14:11;;;;;;;1.00;1.00;;;;;;;;;;7396951;19;20351;-88
2023/10/20 00:16:40;;;;;;;0.55;0.55;;;;;;;;;;7395026;19;20348;-89
2023/10/20 00:19:06;;;;;;;0.40;0.40;;;;;;;;;;7396143;19;20348;-88
2023/10/20 00:21:35;;;;;;;0.50;0.50;;;;;;;;;;7391610;19;20345;-88
2023/10/20 00:24:02;;;;;;;0.45;0.45;;;;;;;;;;7387215;19;20928;-89
2023/10/20 00:26:29;;;;;;;0.50;0.50;;;;;;;;;;7390854;19;21143;-88
2023/10/20 00:28:56;;;;;;;0.68;0.68;;;;;;;;;;7388190;19;20332;-87
2023/10/20 00:31:23;;;;;;;0.40;0.40;;;;;;;;;;7390158;19;20375;-87
2023/10/20 00:33:50;;;;;;;0.47;0.47;;;;;;;;;;7385337;19;20355;-88
2023/10/20 00:36:17;;;;;;;0.90;0.90;;;;;;;;;;7392219;19;20351;-88
2023/10/20 00:38:44;;;;;;;0.63;0.63;;;;;;;;;;7395562;19;20340;-87
2023/10/20 00:41:11;;;;;;;0.50;0.50;;;;;;;;;;7389377;19;20351;-87
2023/10/20 00:43:38;;;;;;;0.82;0.82;;;;;;;;;;7389476;19;20351;-88
2023/10/20 00:46:05;;;;;;;0.40;0.40;;;;;;;;;;7393105;19;20393;-88
2023/10/20 00:48:33;;;;;;;1.30;0.80;;;;;;;;;;7396584;19;20353;-89
2023/10/20 00:51:00;;;;;;;0.55;0.55;;;;;;;;;;7389532;19;20361;-89
2023/10/20 00:53:28;;;;;;;0.50;0.50;;;;;;;;;;7394465;19;20355;-88
2023/10/20 00:55:56;;;;;;;0.52;0.52;;;;;;;;;;7391968;19;20337;-89
2023/10/20 00:58:27;;;;;;;0.52;0.52;;;;;;;;;;7393633;19;20372;-89
2023/10/20 01:00:55;;;;;;;0.50;0.50;;;;;;;;;;7391619;19;20698;-88
2023/10/20 01:03:22;;;;;;;0.67;0.67;;;;;;;;;;7390897;19;20372;-88
2023/10/20 01:05:51;;;;;;;1.02;1.02;;;;;;;;;;7389491;19;20344;-89
2023/10/20 01:08:18;;;;;;;0.50;0.50;;;;;;;;;;7393997;19;20379;-89
2023/10/20 01:10:45;;;;;;;0.60;0.60;;;;;;;;;;7397726;19;20345;-88
2023/10/20 01:13:12;;;;;;;0.60;0.60;;;;;;;;;;7419126;19;20393;-90
2023/10/20 01:15:39;;;;;;;0.50;0.50;;;;;;;;;;7413883;19;20357;-90
2023/10/20 01:18:07;;;;;;;0.47;0.47;;;;;;;;;;7398426;19;20324;-87
2023/10/20 01:20:34;;;;;;;0.80;0.80;;;;;;;;;;7392222;19;20340;-88
2023/10/20 01:23:01;;;;;;;0.30;0.30;;;;;;;;;;7391808;19;20328;-88
2023/10/20 01:25:30;;;;;;;0.57;0.57;;;;;;;;;;7393414;19;20344;-89
2023/10/20 01:27:56;;;;;;;0.45;0.45;;;;;;;;;;7392829;19;21109;-89
2023/10/20 01:30:25;;;;;;;0.30;0.30;;;;;;;;;;7391059;19;20369;-88
2023/10/20 01:32:51;;;;;;;0.90;0.90;;;;;;;;;;7393152;19;20345;-87
2023/10/20 01:35:19;;;;;;;0.43;0.43;;;;;;;;;;7392946;19;20344;-89
2023/10/20 01:37:45;;;;;;;0.88;0.60;;;;;;;;;;7391577;19;20446;-89
2023/10/20 01:40:12;;;;;;;0.50;0.50;;;;;;;;;;7392445;19;20747;-89
2023/10/20 01:42:40;;;;;;;0.40;0.40;;;;;;;;;;7389675;19;20738;-87
2023/10/20 01:45:09;;;;;;;0.73;0.73;;;;;;;;;;7388499;19;20345;-88
2023/10/20 01:47:36;;;;;;;0.47;0.47;;;;;;;;;;7390865;19;20369;-88
2023/10/20 01:50:04;;;;;;;0.82;0.68;;;;;;;;;;7388826;19;20353;-87
2023/10/20 01:52:31;;;;;;;0.50;0.50;;;;;;;;;;7387209;19;20349;-87
2023/10/20 01:54:58;;;;;;;0.52;0.52;;;;;;;;;;7390400;19;20356;-87
2023/10/20 01:57:25;;;;;;;0.40;0.40;;;;;;;;;;7385607;19;20696;-87
2023/10/20 01:59:52;;;;;;;0.70;0.70;;;;;;;;;;7389919;19;21149;-89
2023/10/20 02:02:19;;;;;;;0.50;0.50;;;;;;;;;;7391828;19;20348;-89
2023/10/20 02:04:46;;;;;;;0.40;0.40;;;;;;;;;;7395992;19;20343;-89
2023/10/20 02:07:13;;;;;;;0.57;0.57;;;;;;;;;;7392173;19;20355;-89
2023/10/20 02:09:40;;;;;;;0.50;0.50;;;;;;;;;;7399292;19;20900;-88
2023/10/20 02:12:07;;;;;;;1.83;1.10;;;;;;;;;;7392423;19;20394;-88
2023/10/20 02:14:34;;;;;;;0.40;0.40;;;;;;;;;;7389094;19;20708;-88
2023/10/20 02:17:01;;;;;;;0.93;0.82;;;;;;;;;;7387662;19;20356;-88
2023/10/20 02:19:28;;;;;;;0.45;0.45;;;;;;;;;;7388508;19;20396;-89
2023/10/20 02:21:55;;;;;;;0.40;0.40;;;;;;;;;;7390691;19;20329;-87
2023/10/20 02:24:22;;;;;;;0.40;0.40;;;;;;;;;;7389467;19;20373;-89
2023/10/20 02:26:50;;;;;;;0.40;0.40;;;;;;;;;;7388658;19;20332;-88
2023/10/20 02:29:17;;;;;;;0.50;0.50;;;;;;;;;;7390238;19;20484;-89
2023/10/20 02:31:44;;;;;;;0.73;0.73;;;;;;;;;;7394324;19;20344;-89
2023/10/20 02:34:11;;;;;;;0.50;0.50;;;;;;;;;;7394163;19;20360;-89
2023/10/20 02:36:38;;;;;;;0.70;0.70;;;;;;;;;;7392767;19;20345;-89
2023/10/20 02:39:05;;;;;;;0.70;0.70;;;;;;;;;;7392532;19;20383;-89
2023/10/20 02:41:32;;;;;;;0.45;0.45;;;;;;;;;;7391178;19;20386;-88
2023/10/20 02:43:58;;;;;;;0.40;0.40;;;;;;;;;;7390186;19;20357;-90
2023/10/20 02:46:26;;;;;;;0.65;0.65;;;;;;;;;;7392061;19;20369;-89
2023/10/20 02:48:52;;;;;;;0.50;0.50;;;;;;;;;;7391564;19;20450;-89
2023/10/20 02:51:19;;;;;;;0.50;0.50;;;;;;;;;;7393899;19;20332;-90
2023/10/20 02:53:47;;;;;;;0.80;0.77;;;;;;;;;;7394927;19;20328;-89
2023/10/20 02:56:18;;;;;;;0.63;0.63;;;;;;;;;;7396096;19;20407;-89
2023/10/20 02:58:47;;;;;;;0.68;0.68;;;;;;;;;;7394479;19;20365;-89
2023/10/20 03:01:15;;;;;;;0.30;0.30;;;;;;;;;;7393640;19;20368;-90
2023/10/20 03:03:43;;;;;;;0.40;0.40;;;;;;;;;;7394547;19;20369;-89
2023/10/20 03:06:11;;;;;;;0.30;0.30;;;;;;;;;;7390089;19;20357;-90
2023/10/20 03:08:39;;;;;;;1.20;0.82;;;;;;;;;;7392612;19;20428;-90
2023/10/20 03:11:06;;;;;;;0.70;0.70;;;;;;;;;;7391343;19;20341;-89
2023/10/20 03:13:33;;;;;;;0.65;0.65;;;;;;;;;;7394690;19;20368;-88
2023/10/20 03:16:02;;;;;;;1.33;1.25;;;;;;;;;;7389689;19;20373;-89
2023/10/20 03:18:29;;;;;;;0.90;0.87;;;;;;;;;;7387880;19;20389;-89
2023/10/20 03:21:03;;;;;;;0.60;0.60;;;;;;;;;;7394099;19;20385;-89
2023/10/20 03:23:30;;;;;;;0.43;0.43;;;;;;;;;;7392232;19;20333;-89
2023/10/20 03:26:00;;;;;;;1.70;0.70;;;;;;;;;;7394490;19;20720;-88
2023/10/20 03:28:28;;;;;;;0.63;0.63;;;;;;;;;;7400615;19;20367;-87
2023/10/20 03:30:55;;;;;;;0.60;0.60;;;;;;;;;;7394092;19;20352;-88
2023/10/20 03:33:22;;;;;;;1.00;0.60;;;;;;;;;;7400610;19;20368;-88
2023/10/20 03:35:58;;;;;;;0.40;0.40;;;;;;;;;;7396789;19;20360;-88
2023/10/20 03:38:25;;;;;;;0.82;0.82;;;;;;;;;;7394862;19;20441;-88
2023/10/20 03:40:52;;;;;;;0.60;0.60;;;;;;;;;;7394419;19;20360;-88
2023/10/20 03:43:19;;;;;;;0.60;0.60;;;;;;;;;;7393255;19;21231;-88
2023/10/20 03:45:51;;;;;;;0.63;0.63;;;;;;;;;;7391400;19;20360;-90
2023/10/20 03:48:23;;;;;;;0.52;0.52;;;;;;;;;;7392674;19;20352;-88
2023/10/20 03:50:52;;;;;;;0.52;0.52;;;;;;;;;;7394548;19;20349;-88
2023/10/20 03:53:22;;;;;;;0.90;0.90;;;;;;;;;;7397574;19;20340;-88
2023/10/20 03:55:59;;;;;;;0.50;0.50;;;;;;;;;;7399431;19;20332;-89
2023/10/20 03:58:27;;;;;;;0.70;0.70;;;;;;;;;;7395276;19;20368;-88
2023/10/20 04:00:57;;;;;;;0.73;0.73;;;;;;;;;;7397386;19;20424;-88
2023/10/20 04:03:27;;;;;;;2.13;0.77;;;;;;;;;;7396703;19;20353;-88
2023/10/20 04:05:54;;;;;;;0.40;0.40;;;;;;;;;;7395769;19;20353;-87
2023/10/20 04:08:22;;;;;;;0.43;0.43;;;;;;;;;;7397197;19;20365;-88
2023/10/20 04:10:57;;;;;;;0.40;0.40;;;;;;;;;;7398813;19;20348;-88
2023/10/20 04:13:24;;;;;;;1.35;0.85;;;;;;;;;;7415752;19;20373;-90
2023/10/20 04:15:52;;;;;;;0.73;0.73;;;;;;;;;;7430455;19;20369;-91
2023/10/20 04:18:19;;;;;;;0.70;0.70;;;;;;;;;;7428407;19;20344;-91
2023/10/20 04:20:48;;;;;;;0.57;0.57;;;;;;;;;;7398980;19;20373;-90
2023/10/20 04:23:18;;;;;;;0.50;0.50;;;;;;;;;;7393972;19;20369;-90
2023/10/20 04:25:52;;;;;;;0.50;0.50;;;;;;;;;;7393611;19;20356;-89
2023/10/20 04:28:20;;;;;;;2.35;1.13;;;;;;;;;;7395144;19;20349;-90
2023/10/20 04:42:44;;;;;;;0.63;0.63;;;;;;;;;;7396364;19;20454;-90
2023/10/20 04:50:44;;;;;;;0.55;0.55;;;;;;;;;;7392837;19;20347;-89
2023/10/20 04:53:23;;;;;;;0.55;0.55;;;;;;;;;;7394005;19;20352;-89
2023/10/20 04:58:46;;;;;;;0.45;0.45;;;;;;;;;;7395443;19;20324;-89
2023/10/20 05:01:20;;;;;;;0.70;0.70;;;;;;;;;;7391965;19;20373;-89
2023/10/20 05:03:48;;;;;;;0.50;0.50;;;;;;;;;;7393346;19;20357;-89
2023/10/20 05:06:27;;;;;;;1.25;0.60;;;;;;;;;;7391726;19;20355;-89
2023/10/20 05:08:54;;;;;;;0.60;0.60;;;;;;;;;;7391815;19;20782;-88
2023/10/20 05:11:20;;;;;;;0.50;0.50;;;;;;;;;;7390716;19;20360;-89
2023/10/20 05:13:50;;;;;;;0.90;0.90;;;;;;;;;;7393871;19;20363;-90
2023/10/20 05:16:21;;;;;;;0.40;0.40;;;;;;;;;;7390761;19;20353;-89
2023/10/20 05:18:48;;;;;;;0.57;0.57;;;;;;;;;;7399063;19;20424;-88
2023/10/20 05:21:15;;;;;;;0.50;0.50;;;;;;;;;;7397763;19;20340;-88
2023/10/20 05:23:43;;;;;;;0.60;0.60;;;;;;;;;;7397220;19;20373;-89
2023/10/20 05:26:10;;;;;;;0.70;0.68;;;;;;;;;;7412806;19;20370;-89
2023/10/20 05:28:37;;;;;;;0.60;0.60;;;;;;;;;;7415366;19;20365;-88
2023/10/20 05:31:04;;;;;;;0.32;0.32;;;;;;;;;;7410987;19;20428;-89
2023/10/20 05:33:31;;;;;;;0.47;0.47;;;;;;;;;;7404146;19;20336;-89
2023/10/20 05:36:03;;;;;;;0.50;0.50;;;;;;;;;;7400249;19;20344;-88
2023/10/20 05:38:31;;;;;;;0.50;0.50;;;;;;;;;;7400306;19;20352;-90
2023/10/20 05:40:59;;;;;;;1.80;0.50;;;;;;;;;;7400882;19;20367;-88
2023/10/20 05:43:27;;;;;;;1.50;0.40;;;;;;;;;;7400945;19;20352;-90
2023/10/20 05:45:54;;;;;;;0.90;0.90;;;;;;;;;;7400308;19;20381;-89
2023/10/20 05:48:21;;;;;;;0.90;0.70;;;;;;;;;;7397105;19;20348;-90
2023/10/20 05:50:54;;;;;;;0.60;0.60;;;;;;;;;;7398675;19;20365;-89
2023/10/20 05:53:21;;;;;;;0.98;0.80;;;;;;;;;;7397661;19;20545;-88
2023/10/20 05:55:48;;;;;;;0.60;0.60;;;;;;;;;;7397721;19;20360;-90
2023/10/20 05:58:15;;;;;;;0.70;0.70;;;;;;;;;;7395261;19;20374;-89
2023/10/20 06:00:42;;;;;;;0.47;0.47;;;;;;;;;;7394816;19;20340;-88
2023/10/20 06:03:28;;;;;;;0.50;0.50;;;;;;;;;;7392856;19;20349;-88
2023/10/20 06:06:03;;;;;;;0.35;0.35;;;;;;;;;;7393505;19;20716;-88
2023/10/20 06:08:30;;;;;;;0.60;0.60;;;;;;;;;;7390589;19;20340;-88
2023/10/20 06:11:04;;;;;;;0.80;0.80;;;;;;;;;;7394164;19;20449;-88
2023/10/20 06:13:32;;;;;;;0.40;0.40;;;;;;;;;;7394293;19;20876;-90
2023/10/20 06:16:08;;;;;;;0.40;0.40;;;;;;;;;;7394388;19;20357;-89
2023/10/20 06:18:37;;;;;;;0.50;0.50;;;;;;;;;;7393900;19;20428;-90
2023/10/20 06:21:05;;;;;;;0.47;0.47;;;;;;;;;;7395526;19;20364;-88
2023/10/20 06:23:40;;;;;;;0.50;0.50;;;;;;;;;;7392819;19;20363;-89
2023/10/20 06:30:06;;;;;;;0.40;0.40;;;;;;;;;;7390268;19;20427;-86
2023/10/20 06:32:42;;;;;;;0.50;0.50;;;;;;;;;;7386883;19;20341;-87
2023/10/20 06:35:09;;;;;;;0.57;0.57;;;;;;;;;;7392174;19;20349;-86
2023/10/20 06:37:41;;;;;;;0.50;0.50;;;;;;;;;;7391543;19;20867;-86
2023/10/20 06:40:15;;;;;;;0.55;0.55;;;;;;;;;;7394778;19;20357;-86
2023/10/20 06:42:45;;;;;;;0.57;0.57;;;;;;;;;;7383674;19;20346;-84
2023/10/20 06:45:12;;;;;;;0.50;0.50;;;;;;;;;;7389457;19;20960;-86
2023/10/20 06:47:47;;;;;;;0.70;0.70;;;;;;;;;;7386498;19;20349;-87
2023/10/20 06:50:43;;;;;;;0.47;0.47;;;;;;;;;;7386076;19;20436;-89
2023/10/20 06:53:30;;;;;;;0.70;0.70;;;;;;;;;;7380137;19;20350;-87
2023/10/20 06:56:12;;;;;;;0.70;0.70;;;;;;;;;;7380307;19;20461;-88
2023/10/20 06:58:44;;;;;;;0.60;0.60;;;;;;;;;;7389468;19;20348;-87
2023/10/20 07:01:13;;;;;;;2.30;1.55;;;;;;;;;;7390564;19;20344;-85
2023/10/20 07:03:40;;;;;;;0.38;0.38;;;;;;;;;;7397306;19;20754;-88
2023/10/20 07:06:09;;;;;;;0.45;0.45;;;;;;;;;;7391724;19;20896;-88
2023/10/20 07:08:39;;;;;;;0.50;0.50;;;;;;;;;;7401924;19;20352;-88
2023/10/20 07:11:06;;;;;;;1.90;0.90;;;;;;;;;;7399997;19;20387;-86
2023/10/20 07:13:33;;;;;;;0.60;0.60;;;;;;;;;;7404743;19;20357;-85
2023/10/20 07:16:03;;;;;;;0.30;0.30;;;;;;;;;;7400516;19;20340;-85
2023/10/20 07:18:32;;;;;;;0.60;0.60;;;;;;;;;;7406468;19;20332;-88
2023/10/20 07:21:00;;;;;;;0.80;0.50;;;;;;;;;;7403265;19;20949;-87
2023/10/20 07:23:27;;;;;;;0.47;0.47;;;;;;;;;;7408117;19;20368;-89
2023/10/20 07:26:11;;;;;;;0.90;0.60;;;;;;;;;;7395190;19;20393;-88
2023/10/20 07:35:55;;;;;;;0.40;0.40;;;;;;;;;;7399382;19;20344;-88
2023/10/20 07:38:25;;;;;;;0.50;0.50;;;;;;;;;;7398557;19;20369;-90
2023/10/20 07:40:51;;;;;;;0.70;0.70;;;;;;;;;;7398668;19;20341;-89
2023/10/20 07:43:19;;;;;;;0.30;0.30;;;;;;;;;;7398571;19;20431;-89
2023/10/20 07:45:46;;;;;;;0.47;0.47;;;;;;;;;;7395490;19;20684;-88
2023/10/20 07:48:14;;;;;;;0.70;0.60;;;;;;;;;;7391543;19;20356;-88
2023/10/20 07:50:42;;;;;;;0.90;0.90;;;;;;;;;;7395326;19;20361;-87
2023/10/20 07:53:10;;;;;;;0.45;0.45;;;;;;;;;;7394410;19;20400;-89
2023/10/20 07:55:42;;;;;;;0.40;0.40;;;;;;;;;;7393921;19;20348;-90
2023/10/20 07:58:09;;;;;;;0.50;0.50;;;;;;;;;;7392848;19;20352;-89
2023/10/20 08:00:36;;;;;;;0.50;0.50;;;;;;;;;;7396272;19;20374;-90
2023/10/20 08:03:03;;;;;;;0.40;0.40;;;;;;;;;;7399466;19;20386;-89
2023/10/20 08:05:30;;;;;;;1.40;0.50;;;;;;;;;;7401994;19;20369;-90
2023/10/20 08:08:01;;;;;;;0.40;0.40;;;;;;;;;;7398799;19;20750;-90
2023/10/20 08:10:28;;;;;;;0.30;0.30;;;;;;;;;;7400973;19;20402;-89
2023/10/20 08:12:54;;;;;;;1.00;0.60;;;;;;;;;;7400626;19;20366;-89
2023/10/20 08:15:22;;;;;;;1.50;1.02;;;;;;;;;;7402870;19;20337;-91
2023/10/20 08:17:50;;;;;;;0.50;0.50;;;;;;;;;;7401655;19;20360;-91
2023/10/20 08:20:17;;;;;;;0.75;0.50;;;;;;;;;;7402428;19;20340;-87
2023/10/20 08:22:44;;;;;;;0.55;0.55;;;;;;;;;;7403927;19;20390;-87
2023/10/20 08:25:11;;;;;;;0.30;0.30;;;;;;;;;;7401500;19;20356;-86
2023/10/20 08:27:38;;;;;;;0.40;0.40;;;;;;;;;;7396294;19;20775;-91
2023/10/20 08:30:05;;;;;;;0.60;0.60;;;;;;;;;;7400871;19;20357;-87
2023/10/20 08:32:32;;;;;;;0.38;0.38;;;;;;;;;;7400300;19;20344;-87
2023/10/20 08:34:59;;;;;;;0.40;0.40;;;;;;;;;;7401798;19;20344;-90
2023/10/20 08:37:25;;;;;;;0.77;0.70;;;;;;;;;;7400554;19;20483;-89
2023/10/20 08:39:54;;;;;;;0.35;0.35;;;;;;;;;;7402062;19;20374;-90
2023/10/20 08:42:24;;;;;;;0.60;0.60;;;;;;;;;;7397865;19;20448;-89
2023/10/20 08:44:51;;;;;;;0.70;0.70;;;;;;;;;;7400698;19;20429;-89
2023/10/20 08:47:19;;;;;;;1.90;1.40;;;;;;;;;;7399085;19;20778;-90
2023/10/20 08:49:47;;;;;;;0.30;0.30;;;;;;;;;;7402528;19;20720;-87
2023/10/20 08:52:14;;;;;;;0.80;0.80;;;;;;;;;;7397448;19;20365;-91
2023/10/20 08:54:41;;;;;;;0.38;0.38;;;;;;;;;;7398943;19;20360;-89
2023/10/20 08:57:08;;;;;;;8.00;0.70;;;;;;;;;;7400689;19;20381;-92
2023/10/20 08:59:37;;;;;;;0.52;0.52;;;;;;;;;;7399835;19;20424;-88
2023/10/20 09:02:05;;;;;;;0.75;0.75;;;;;;;;;;7393657;19;20991;-90
2023/10/20 09:04:32;;;;;;;0.52;0.52;;;;;;;;;;7397603;19;20316;-90
2023/10/20 09:07:11;;;;;;;2.60;0.93;;;;;;;;;;7397509;19;20436;-92
2023/10/20 09:09:38;;;;;;;0.70;0.70;;;;;;;;;;7393724;19;20936;-90
2023/10/20 09:12:08;;;;;;;0.40;0.40;;;;;;;;;;7397356;19;20337;-90
2023/10/20 09:14:42;;;;;;;0.70;0.70;;;;;;;;;;7397500;19;20396;-91
2023/10/20 09:17:21;;;;;;;0.68;0.68;;;;;;;;;;7398025;19;20363;-91
2023/10/20 09:19:47;;;;;;;0.37;0.37;;;;;;;;;;7394071;19;20408;-91
2023/10/20 09:22:15;;;;;;;0.40;0.40;;;;;;;;;;7396880;19;20373;-92
2023/10/20 09:24:41;;;;;;;0.90;0.90;;;;;;;;;;7398368;19;20896;-90
2023/10/20 09:27:08;;;;;;;0.50;0.50;;;;;;;;;;7395001;19;20355;-90
2023/10/20 09:29:37;;;;;;;0.40;0.40;;;;;;;;;;7396576;19;20340;-91
2023/10/20 09:32:04;;;;;;;0.50;0.50;;;;;;;;;;7398070;19;20499;-91
2023/10/20 09:34:31;;;;;;;0.50;0.50;;;;;;;;;;7400794;19;20343;-87
2023/10/20 09:37:00;;;;;;;0.30;0.30;;;;;;;;;;7397113;19;20412;-88
2023/10/20 09:39:37;;;;;;;0.38;0.38;;;;;;;;;;7400602;19;20880;-90
2023/10/20 09:42:05;;;;;;;0.40;0.40;;;;;;;;;;7396708;19;20356;-90
2023/10/20 09:44:47;;;;;;;0.35;0.35;;;;;;;;;;7402509;19;20325;-90
2023/10/20 09:47:27;;;;;;;0.40;0.40;;;;;;;;;;7392964;19;20451;-88
2023/10/20 09:49:57;;;;;;;0.40;0.40;;;;;;;;;;7396329;19;20361;-87
2023/10/20 09:52:25;;;;;;;0.27;0.27;;;;;;;;;;7394655;19;20364;-90
2023/10/20 09:54:55;;;;;;;0.47;0.47;;;;;;;;;;7393672;19;20348;-91
2023/10/20 09:57:26;;;;;;;0.50;0.50;;;;;;;;;;7395737;19;20344;-90
2023/10/20 09:59:53;;;;;;;0.40;0.40;;;;;;;;;;7397573;19;20435;-88
2023/10/20 10:02:28;;;;;;;0.30;0.30;;;;;;;;;;7394377;19;20357;-91
2023/10/20 10:04:58;;;;;;;0.43;0.43;;;;;;;;;;7393766;19;20420;-91
2023/10/20 10:07:29;;;;;;;0.30;0.30;;;;;;;;;;7392724;19;20857;-92
2023/10/20 10:09:57;;;;;;;0.40;0.40;;;;;;;;;;7396621;19;20358;-90
2023/10/20 10:12:28;;;;;;;0.68;0.68;;;;;;;;;;7394501;19;20472;-90
2023/10/20 10:15:01;;;;;;;0.50;0.50;;;;;;;;;;7398617;19;20361;-90
2023/10/20 10:17:28;;;;;;;0.30;0.30;;;;;;;;;;7394156;19;20361;-89
2023/10/20 10:19:56;;;;;;;0.47;0.47;;;;;;;;;;7394192;19;20377;-91
2023/10/20 10:22:26;;;;;;;0.50;0.50;;;;;;;;;;7394750;19;20358;-93
2023/10/20 10:24:55;;;;;;;0.30;0.30;;;;;;;;;;7394296;19;20329;-89
2023/10/20 10:27:29;;;;;;;0.30;0.30;;;;;;;;;;7393974;19;20370;-92
2023/10/20 10:30:00;;;;;;;0.30;0.30;;;;;;;;;;7394575;19;20348;-91
2023/10/20 10:32:36;;;;;;;0.37;0.37;;;;;;;;;;7395258;19;20364;-91
2023/10/20 10:35:08;;;;;;;0.30;0.30;;;;;;;;;;7399895;19;20328;-88
2023/10/20 10:37:37;;;;;;;0.30;0.30;;;;;;;;;;7404106;19;20365;-88
2023/10/20 10:40:13;;;;;;;0.20;0.20;;;;;;;;;;7405626;19;20316;-89
2023/10/20 10:42:51;;;;;;;0.52;0.52;;;;;;;;;;7400331;19;20446;-90
2023/10/20 10:45:23;;;;;;;0.40;0.40;;;;;;;;;;7403050;19;20373;-88
2023/10/20 10:47:51;;;;;;;0.40;0.40;;;;;;;;;;7403588;19;20353;-90
2023/10/20 10:50:22;;;;;;;0.30;0.30;;;;;;;;;;7399488;19;20369;-91
2023/10/20 10:52:48;;;;;;;0.30;0.30;;;;;;;;;;7403127;19;20361;-90
2023/10/20 10:55:18;;;;;;;0.43;0.43;;;;;;;;;;7398166;19;20365;-86
2023/10/20 10:57:44;;;;;;;0.30;0.30;;;;;;;;;;7399364;19;20359;-90
2023/10/20 11:00:15;;;;;;;0.20;0.20;;;;;;;;;;7395989;19;20701;-88
2023/10/20 11:02:43;;;;;;;0.43;0.43;;;;;;;;;;7398074;19;20332;-90
2023/10/20 11:05:12;;;;;;;0.30;0.30;;;;;;;;;;7404234;19;20403;-88
2023/10/20 11:07:40;;;;;;;0.30;0.30;;;;;;;;;;7407879;19;20348;-88
2023/10/20 11:10:07;;;;;;;0.30;0.30;;;;;;;;;;7406387;19;20336;-88
2023/10/20 11:12:35;;;;;;;0.30;0.30;;;;;;;;;;7400537;19;20389;-88
2023/10/20 11:15:06;;;;;;;0.30;0.30;;;;;;;;;;7407899;19;20412;-88
2023/10/20 11:17:36;;;;;;;0.20;0.20;;;;;;;;;;7405317;19;20360;-89
2023/10/20 11:20:04;;;;;;;0.50;0.50;;;;;;;;;;7405994;19;20381;-86
2023/10/20 11:22:37;;;;;;;0.38;0.38;;;;;;;;;;7405457;19;20352;-87
2023/10/20 11:25:05;;;;;;;0.30;0.30;;;;;;;;;;7402431;19;20357;-88
2023/10/20 11:27:43;;;;;;;0.20;0.20;;;;;;;;;;7407066;19;20368;-88
2023/10/20 11:30:10;;;;;;;0.40;0.40;;;;;;;;;;7400137;19;20370;-91
2023/10/20 11:32:37;;;;;;;0.30;0.30;;;;;;;;;;7400899;19;20345;-89
2023/10/20 11:35:08;;;;;;;0.30;0.30;;;;;;;;;;7399575;19;20733;-90
2023/10/20 11:37:35;;;;;;;0.20;0.20;;;;;;;;;;7398922;19;20377;-87
2023/10/20 11:40:02;;;;;;;0.30;0.30;;;;;;;;;;7398886;19;20348;-90
2023/10/20 11:42:29;;;;;;;0.30;0.30;;;;;;;;;;7400163;19;20921;-89
2023/10/20 11:45:01;;;;;;;0.30;0.30;;;;;;;;;;7400851;19;20327;-92
2023/10/20 11:47:28;;;;;;;0.20;0.20;;;;;;;;;;7399319;19;20352;-89
2023/10/20 11:49:57;;;;;;;0.30;0.30;;;;;;;;;;7398104;19;20378;-89
2023/10/20 11:52:24;;;;;;;0.40;0.40;;;;;;;;;;7397388;19;20347;-89
2023/10/20 11:54:51;;;;;;;0.50;0.50;;;;;;;;;;7399916;19;20534;-86
2023/10/20 11:57:18;;;;;;;0.25;0.25;;;;;;;;;;7396936;19;20415;-85
2023/10/20 11:59:45;;;;;;;0.30;0.30;;;;;;;;;;7399773;19;20411;-89
2023/10/20 12:02:12;;;;;;;0.30;0.30;;;;;;;;;;7401808;19;20341;-92
2023/10/20 12:04:39;;;;;;;0.28;0.28;;;;;;;;;;7402061;19;21267;-89
2023/10/20 12:07:06;;;;;;;0.30;0.30;;;;;;;;;;7397993;19;20356;-89
2023/10/20 12:09:34;;;;;;;0.30;0.30;;;;;;;;;;7400626;19;20360;-86
2023/10/20 12:12:00;;;;;;;0.30;0.30;;;;;;;;;;7400741;19;20368;-87
2023/10/20 12:14:31;;;;;;;0.30;0.30;;;;;;;;;;7399882;19;20427;-91
2023/10/20 12:16:59;;;;;;;0.30;0.30;;;;;;;;;;7400381;19;20352;-92
2023/10/20 12:19:27;;;;;;;0.20;0.20;;;;;;;;;;7399360;19;20360;-88
2023/10/20 12:21:55;;;;;;;0.20;0.20;;;;;;;;;;7396920;19;20389;-90
2023/10/20 12:24:25;;;;;;;0.55;0.55;;;;;;;;;;7399408;19;20420;-87
2023/10/20 12:26:52;;;;;;;0.30;0.30;;;;;;;;;;7399202;19;20353;-88
2023/10/20 12:29:22;;;;;;;0.20;0.20;;;;;;;;;;7396091;19;20352;-89
2023/10/20 12:31:49;;;;;;;0.30;0.30;;;;;;;;;;7395639;19;20444;-89
2023/10/20 12:34:16;;;;;;;0.30;0.30;;;;;;;;;;7397061;19;20352;-91
2023/10/20 12:36:43;;;;;;;0.30;0.30;;;;;;;;;;7396295;19;20908;-88
2023/10/20 12:39:17;;;;;;;0.30;0.30;;;;;;;;;;7397902;19;20356;-89
2023/10/20 12:41:44;;;;;;;0.40;0.40;;;;;;;;;;7397430;19;20441;-89
2023/10/20 12:44:11;;;;;;;0.30;0.30;;;;;;;;;;7403612;19;20369;-89
2023/10/20 12:46:39;;;;;;;0.20;0.20;;;;;;;;;;7401962;19;20352;-91
2023/10/20 12:49:06;;;;;;;0.40;0.40;;;;;;;;;;7404278;19;20383;-89
2023/10/20 12:51:34;;;;;;;0.40;0.40;;;;;;;;;;7400307;19;20349;-90
2023/10/20 12:54:01;;;;;;;0.30;0.30;;;;;;;;;;7403659;19;20345;-89
2023/10/20 12:56:28;;;;;;;0.20;0.20;;;;;;;;;;7404136;19;20374;-89
2023/10/20 12:58:59;;;;;;;0.30;0.30;;;;;;;;;;7399615;19;20357;-89
2023/10/20 13:01:31;;;;;;;0.30;0.30;;;;;;;;;;7400840;19;20385;-89
2023/10/20 13:03:59;;;;;;;0.60;0.60;;;;;;;;;;7398992;19;20400;-90
2023/10/20 13:06:27;;;;;;;0.30;0.30;;;;;;;;;;7402026;19;20728;-89
2023/10/20 13:08:54;;;;;;;0.20;0.20;;;;;;;;;;7400741;19;20964;-90
2023/10/20 13:11:21;;;;;;;0.35;0.35;;;;;;;;;;7401551;19;20388;-90
2023/10/20 13:13:51;;;;;;;0.30;0.30;;;;;;;;;;7401992;19;20361;-90
2023/10/20 13:16:20;;;;;;;0.40;0.40;;;;;;;;;;7401699;19;20344;-92
2023/10/20 13:18:48;;;;;;;0.30;0.30;;;;;;;;;;7402371;19;20364;-89
2023/10/20 13:21:16;;;;;;;0.30;0.30;;;;;;;;;;7401630;19;20997;-89
2023/10/20 13:23:43;;;;;;;0.30;0.30;;;;;;;;;;7395151;19;20690;-89
2023/10/20 13:26:11;;;;;;;0.30;0.30;;;;;;;;;;7396949;19;20900;-89
2023/10/20 13:28:38;;;;;;;0.20;0.20;;;;;;;;;;7394812;19;20897;-89
2023/10/20 13:31:33;;;;;;;0.50;0.50;;;;;;;;;;7389230;19;20360;-89
2023/10/20 13:34:17;;;;;;;0.25;0.25;;;;;;;;;;7395172;19;20925;-89
2023/10/20 13:36:44;;;;;;;0.30;0.30;;;;;;;;;;7397608;19;20343;-89
2023/10/20 13:39:11;;;;;;;0.30;0.30;;;;;;;;;;7406023;19;20340;-90
2023/10/20 13:41:41;;;;;;;0.30;0.30;;;;;;;;;;7401916;19;20370;-88
2023/10/20 13:44:10;;;;;;;0.22;0.22;;;;;;;;;;7401337;19;20356;-89
2023/10/20 13:46:36;;;;;;;0.30;0.30;;;;;;;;;;7398234;19;20876;-88
2023/10/20 13:49:03;;;;;;;0.30;0.30;;;;;;;;;;7393954;19;20348;-88
2023/10/20 13:51:31;;;;;;;0.30;0.30;;;;;;;;;;7397251;19;20349;-89
2023/10/20 13:53:57;;;;;;;0.20;0.20;;;;;;;;;;7400571;19;20341;-89
2023/10/20 13:56:25;;;;;;;1.00;0.60;;;;;;;;;;7403094;19;20348;-91
2023/10/20 13:58:52;;;;;;;0.40;0.40;;;;;;;;;;7402669;19;20381;-89
2023/10/20 14:01:19;;;;;;;0.30;0.30;;;;;;;;;;7403199;19;20352;-88
2023/10/20 14:03:48;;;;;;;0.30;0.30;;;;;;;;;;7402057;19;20345;-88
2023/10/20 14:06:16;;;;;;;0.40;0.40;;;;;;;;;;7401454;19;20428;-89
2023/10/20 14:08:43;;;;;;;0.38;0.38;;;;;;;;;;7402686;19;20353;-89
2023/10/20 14:11:14;;;;;;;0.20;0.20;;;;;;;;;;7400827;19;20881;-88
2023/10/20 14:13:43;;;;;;;0.30;0.30;;;;;;;;;;7398980;19;20381;-88
2023/10/20 14:16:10;;;;;;;0.38;0.38;;;;;;;;;;7398371;19;20416;-89
2023/10/20 14:18:37;;;;;;;0.30;0.30;;;;;;;;;;7397084;19;20344;-88
2023/10/20 14:21:04;;;;;;;0.20;0.20;;;;;;;;;;7395548;19;20363;-90
2023/10/20 14:23:31;;;;;;;0.30;0.30;;;;;;;;;;7395432;19;20356;-89
2023/10/20 14:25:58;;;;;;;0.70;0.70;;;;;;;;;;7397006;19;20344;-90
2023/10/20 14:28:32;;;;;;;0.20;0.20;;;;;;;;;;7401343;19;20861;-90
2023/10/20 14:31:02;;;;;;;0.30;0.30;;;;;;;;;;7393936;19;20348;-89
2023/10/20 14:33:30;;;;;;;0.30;0.30;;;;;;;;;;7394336;19;20720;-89
2023/10/20 14:35:59;;;;;;;0.40;0.40;;;;;;;;;;7396085;19;20340;-90
2023/10/20 14:38:27;;;;;;;0.30;0.30;;;;;;;;;;7395044;19;20356;-89
2023/10/20 14:41:10;;;;;;;0.30;0.30;;;;;;;;;;7399486;19;20368;-89
2023/10/20 14:43:37;;;;;;;0.30;0.30;;;;;;;;;;7397572;19;20344;-90
2023/10/20 14:46:07;;;;;;;0.40;0.40;;;;;;;;;;7392953;19;20378;-89
2023/10/20 14:48:36;;;;;;;0.50;0.50;;;;;;;;;;7391875;19;20344;-90
2023/10/20 14:51:07;;;;;;;0.20;0.20;;;;;;;;;;7391524;19;20358;-90
2023/10/20 14:53:34;;;;;;;0.30;0.30;;;;;;;;;;7391200;19;20389;-90
2023/10/20 14:56:03;;;;;;;0.50;0.50;;;;;;;;;;7394691;19;20404;-89
2023/10/20 14:58:33;;;;;;;0.30;0.30;;;;;;;;;;7397242;19;20349;-88
2023/10/20 15:01:00;;;;;;;0.25;0.25;;;;;;;;;;7395445;19;20353;-89
2023/10/20 15:03:29;;;;;;;0.50;0.50;;;;;;;;;;7395922;19;20357;-89
2023/10/20 15:06:00;;;;;;;0.30;0.30;;;;;;;;;;7394476;19;20957;-89
2023/10/20 15:08:27;;;;;;;0.40;0.40;;;;;;;;;;7400037;19;20353;-89
2023/10/20 15:10:54;;;;;;;0.30;0.30;;;;;;;;;;7401202;19;20369;-90
2023/10/20 15:13:21;;;;;;;0.27;0.27;;;;;;;;;;7397501;19;20356;-89
2023/10/20 15:15:48;;;;;;;0.30;0.30;;;;;;;;;;7399782;19;20811;-88
2023/10/20 15:18:18;;;;;;;0.40;0.40;;;;;;;;;;7394297;19;20356;-89
2023/10/20 15:20:45;;;;;;;0.35;0.35;;;;;;;;;;7397605;19;20869;-88
2023/10/20 15:23:12;;;;;;;0.30;0.30;;;;;;;;;;7401955;19;21000;-88
2023/10/20 15:25:45;;;;;;;0.30;0.30;;;;;;;;;;7389170;19;20344;-90